Time;durP1;ratioP1;P1;durP2;ratioP2;P2;SDS_P1;SDS_P2;PMS_P1;PMS_P2;Temp;Humidity;BMP_temperature;BMP_pressure;BME280_temperature;BME280_humidity;BME280_pressure;Samples;Min_cycle;Max_cycle;Signal;HPM_P1;HPM_P2
2022/09/18 00:01:11;;;;;;;12.70;2.53;;;14.00;99.90;;;;;;5012731;28;20112;-64
2022/09/18 00:03:38;;;;;;;8.18;2.22;;;14.00;99.90;;;;;;5031056;28;20116;-64
2022/09/18 00:06:06;;;;;;;10.25;1.50;;;14.30;99.90;;;;;;5007213;28;20511;-64
2022/09/18 00:08:32;;;;;;;14.00;2.08;;;14.10;99.90;;;;;;5011162;28;20131;-65
2022/09/18 00:10:57;;;;;;;14.05;2.30;;;14.30;99.90;;;;;;5013161;28;20096;-66
2022/09/18 00:13:23;;;;;;;9.93;1.85;;;14.10;99.90;;;;;;5013980;28;20064;-64
2022/09/18 00:15:55;;;;;;;7.05;1.70;;;14.10;99.90;;;;;;5020729;28;20045;-65
2022/09/18 00:18:21;;;;;;;15.00;3.15;;;14.20;99.90;;;;;;5016819;28;20384;-65
2022/09/18 00:20:46;;;;;;;10.13;1.73;;;13.90;99.90;;;;;;5016954;28;20048;-63
2022/09/18 00:23:12;;;;;;;10.75;2.72;;;13.90;99.90;;;;;;5034412;28;20045;-64
2022/09/18 00:25:39;;;;;;;12.23;2.17;;;13.80;99.90;;;;;;5034247;28;20510;-64
2022/09/18 00:28:06;;;;;;;11.15;1.85;;;13.60;99.90;;;;;;5034334;28;20045;-63
2022/09/18 00:30:31;;;;;;;12.80;2.10;;;13.60;99.90;;;;;;5016144;28;20038;-64
2022/09/18 00:32:57;;;;;;;14.73;2.30;;;13.90;99.90;;;;;;5016175;28;20041;-64
2022/09/18 00:35:23;;;;;;;8.65;1.88;;;13.70;99.90;;;;;;5016279;28;20120;-65
2022/09/18 00:37:48;;;;;;;11.50;1.98;;;13.80;99.90;;;;;;5034000;28;20446;-64
2022/09/18 00:40:15;;;;;;;9.73;2.03;;;13.70;99.90;;;;;;5034081;28;20029;-64
2022/09/18 00:42:41;;;;;;;8.07;1.88;;;13.90;99.90;;;;;;5016383;28;20507;-65
2022/09/18 00:45:09;;;;;;;10.55;1.42;;;13.00;99.90;;;;;;5016184;28;20560;-64
2022/09/18 00:47:40;;;;;;;12.68;1.80;;;12.60;99.90;;;;;;5018172;28;20049;-64
2022/09/18 00:50:26;;;;;;;17.58;2.60;;;12.60;99.90;;;;;;5045959;28;20538;-64
2022/09/18 00:52:56;;;;;;;16.63;2.03;;;12.50;99.90;;;;;;5033583;28;20491;-64
2022/09/18 00:55:30;;;;;;;13.73;2.58;;;13.60;99.90;;;;;;5016137;28;20088;-64
2022/09/18 00:57:58;;;;;;;12.73;2.20;;;12.50;99.90;;;;;;5015827;28;20072;-65
2022/09/18 01:00:24;;;;;;;10.27;2.08;;;12.80;99.90;;;;;;5015486;28;20521;-64
2022/09/18 01:02:49;;;;;;;15.05;2.10;;;13.00;99.90;;;;;;5015765;28;20081;-64
2022/09/18 01:05:28;;;;;;;14.63;2.00;;;12.50;99.90;;;;;;5016463;28;20373;-65
2022/09/18 01:08:19;;;;;;;9.98;1.80;;;12.60;99.90;;;;;;5015380;28;20431;-66
2022/09/18 01:10:56;;;;;;;21.58;3.58;;;12.60;99.90;;;;;;5015113;28;20132;-64
2022/09/18 01:13:32;;;;;;;5.65;1.45;;;12.80;99.90;;;;;;5015679;28;20056;-64
2022/09/18 01:16:22;;;;;;;14.48;2.45;;;12.80;99.90;;;;;;5015808;28;20052;-65
2022/09/18 01:19:19;;;;;;;19.23;2.20;;;13.40;99.90;;;;;;5015522;28;20045;-65
2022/09/18 01:22:06;;;;;;;18.60;2.50;;;13.40;99.90;;;;;;5014266;28;20073;-66
2022/09/18 01:24:44;;;;;;;9.32;1.88;;;13.60;99.90;;;;;;5015546;28;20060;-66
2022/09/18 01:27:18;;;;;;;13.40;1.98;;;13.50;99.90;;;;;;5015023;28;20045;-65
2022/09/18 01:29:51;;;;;;;9.73;1.83;;;13.60;99.90;;;;;;5015703;28;20097;-64
2022/09/18 01:32:20;;;;;;;8.93;1.67;;;13.30;99.90;;;;;;5017062;28;20419;-65
2022/09/18 01:35:15;;;;;;;9.50;1.80;;;13.30;99.90;;;;;;5035415;28;20040;-64
2022/09/18 01:37:50;;;;;;;7.15;1.50;;;13.80;99.90;;;;;;5022244;28;20040;-64
2022/09/18 01:40:22;;;;;;;17.48;1.80;;;13.90;99.90;;;;;;5014843;28;20405;-66
2022/09/18 01:42:50;;;;;;;7.90;1.67;;;14.00;99.90;;;;;;5015647;28;20132;-66
2022/09/18 01:45:21;;;;;;;9.02;2.00;;;14.00;99.90;;;;;;5032787;28;20073;-66
2022/09/18 01:47:52;;;;;;;12.48;2.22;;;13.60;99.90;;;;;;5015059;28;20049;-65
2022/09/18 01:50:18;;;;;;;8.68;1.60;;;13.60;99.90;;;;;;5014676;28;20090;-65
2022/09/18 01:52:51;;;;;;;8.50;1.42;;;13.90;99.90;;;;;;5015117;28;20045;-64
2022/09/18 01:55:21;;;;;;;7.78;1.60;;;14.20;99.90;;;;;;5014761;28;20052;-64
2022/09/18 01:57:57;;;;;;;6.47;1.45;;;14.20;99.90;;;;;;5004239;28;20045;-65
2022/09/18 02:00:23;;;;;;;5.78;1.50;;;14.10;99.90;;;;;;5012034;28;20037;-64
2022/09/18 02:03:04;;;;;;;6.70;1.77;;;14.40;99.90;;;;;;5014853;28;20037;-64
2022/09/18 02:05:34;;;;;;;6.32;1.30;;;14.40;99.90;;;;;;5015080;28;20491;-65
2022/09/18 02:08:09;;;;;;;7.07;1.80;;;14.10;99.90;;;;;;5015119;28;20056;-64
2022/09/18 02:10:40;;;;;;;7.30;1.38;;;14.40;99.90;;;;;;5013883;28;20143;-65
2022/09/18 02:13:09;;;;;;;5.18;1.25;;;14.20;99.90;;;;;;5032595;28;20049;-65
2022/09/18 02:15:38;;;;;;;7.60;1.60;;;13.60;99.90;;;;;;5014293;28;20439;-66
2022/09/18 02:18:08;;;;;;;10.48;1.83;;;13.70;99.90;;;;;;5014821;28;20239;-64
2022/09/18 02:20:36;;;;;;;13.80;2.10;;;13.80;99.90;;;;;;5014500;28;20526;-64
2022/09/18 02:23:05;;;;;;;8.85;1.90;;;13.20;99.90;;;;;;5032370;28;20060;-65
2022/09/18 02:25:39;;;;;;;8.98;1.98;;;13.80;99.90;;;;;;5012465;28;20130;-64
2022/09/18 02:28:07;;;;;;;9.90;2.25;;;13.80;99.90;;;;;;5011538;28;20053;-65
2022/09/18 02:30:33;;;;;;;4.40;1.25;;;13.70;99.90;;;;;;4996729;28;20189;-66
2022/09/18 02:32:58;;;;;;;4.10;1.30;;;13.60;99.90;;;;;;5014181;28;20042;-66
2022/09/18 02:35:30;;;;;;;7.65;2.00;;;13.60;99.90;;;;;;5013963;28;20403;-65
2022/09/18 02:38:21;;;;;;;6.53;1.60;;;13.60;99.90;;;;;;4994702;28;20038;-65
2022/09/18 02:40:52;;;;;;;9.50;1.58;;;13.70;99.90;;;;;;5000338;28;20045;-65
2022/09/18 02:43:36;;;;;;;7.70;2.40;;;13.60;99.90;;;;;;5031456;28;20045;-64
2022/09/18 02:46:25;;;;;;;12.27;1.55;;;13.50;99.90;;;;;;5013760;28;20129;-65
2022/09/18 02:49:19;;;;;;;13.45;1.73;;;13.90;99.90;;;;;;5014166;28;20054;-66
2022/09/18 02:52:05;;;;;;;16.75;1.83;;;13.50;99.90;;;;;;5003209;28;20500;-65
2022/09/18 02:54:39;;;;;;;10.68;2.00;;;13.60;99.90;;;;;;5010917;28;20117;-65
2022/09/18 02:57:17;;;;;;;9.98;2.00;;;13.30;99.90;;;;;;5003337;28;20495;-65
2022/09/18 02:59:48;;;;;;;14.55;1.63;;;13.30;99.90;;;;;;5003817;28;20037;-64
2022/09/18 03:02:13;;;;;;;17.20;2.33;;;13.90;99.90;;;;;;5014033;28;20060;-65
2022/09/18 03:04:39;;;;;;;8.95;1.98;;;13.70;99.90;;;;;;5014173;28;20438;-64
2022/09/18 03:07:05;;;;;;;6.40;1.50;;;13.60;99.90;;;;;;5013417;28;20046;-65
2022/09/18 03:09:33;;;;;;;6.90;1.50;;;13.70;99.90;;;;;;5013467;28;20466;-66
2022/09/18 03:12:00;;;;;;;3.45;1.17;;;13.80;99.90;;;;;;5030446;28;20049;-65
2022/09/18 03:14:26;;;;;;;11.25;1.90;;;13.90;99.90;;;;;;5013959;28;20541;-64
2022/09/18 03:16:52;;;;;;;15.45;2.28;;;13.50;99.90;;;;;;5013005;28;20045;-66
2022/09/18 03:19:17;;;;;;;15.38;2.10;;;13.30;99.90;;;;;;5013737;28;20116;-64
2022/09/18 03:21:43;;;;;;;11.70;1.90;;;13.30;99.90;;;;;;5013131;28;20465;-64
2022/09/18 03:24:08;;;;;;;11.05;1.80;;;14.20;99.90;;;;;;5013559;28;20556;-65
2022/09/18 03:26:34;;;;;;;7.63;1.58;;;13.40;99.90;;;;;;5030376;28;20435;-65
2022/09/18 03:28:59;;;;;;;5.95;0.80;;;12.80;99.90;;;;;;5031395;28;20041;-66
2022/09/18 03:31:25;;;;;;;3.00;0.93;;;13.10;99.90;;;;;;5030659;28;20037;-65
2022/09/18 03:33:51;;;;;;;6.40;1.20;;;12.60;99.90;;;;;;5013540;28;20041;-64
2022/09/18 03:36:16;;;;;;;8.70;1.20;;;12.90;99.90;;;;;;5013303;28;20391;-64
2022/09/18 03:38:42;;;;;;;10.25;1.23;;;12.60;99.90;;;;;;5013481;28;20077;-64
2022/09/18 03:41:08;;;;;;;11.82;1.30;;;12.90;99.90;;;;;;5013093;28;20040;-66
2022/09/18 03:43:34;;;;;;;8.05;1.30;;;13.10;99.90;;;;;;5014041;28;20049;-65
2022/09/18 03:46:00;;;;;;;10.40;1.10;;;13.10;99.90;;;;;;5034409;28;20033;-65
2022/09/18 03:48:27;;;;;;;8.63;1.40;;;13.20;99.90;;;;;;5017307;28;20040;-65
2022/09/18 03:50:52;;;;;;;12.30;1.77;;;12.80;99.90;;;;;;5034913;28;20045;-64
2022/09/18 03:53:18;;;;;;;11.77;1.70;;;13.30;99.90;;;;;;5017204;28;20392;-64
2022/09/18 03:55:45;;;;;;;8.73;1.70;;;13.50;99.90;;;;;;5034290;28;20029;-65
2022/09/18 03:58:11;;;;;;;8.73;1.73;;;13.60;99.90;;;;;;5032424;28;20104;-65
2022/09/18 04:00:37;;;;;;;15.65;1.80;;;13.70;99.90;;;;;;5034533;28;20114;-65
2022/09/18 04:03:03;;;;;;;6.55;1.60;;;13.40;99.90;;;;;;5035077;28;20462;-65
2022/09/18 04:05:28;;;;;;;8.25;1.85;;;13.70;99.90;;;;;;5016862;28;20049;-66
2022/09/18 04:07:54;;;;;;;8.18;1.77;;;13.30;99.90;;;;;;5016823;28;20116;-66
2022/09/18 04:10:20;;;;;;;12.43;1.60;;;12.80;99.90;;;;;;5016017;28;20491;-66
2022/09/18 04:12:46;;;;;;;15.65;2.30;;;12.80;99.90;;;;;;5017135;28;20395;-67
2022/09/18 04:15:13;;;;;;;11.98;2.40;;;12.50;99.90;;;;;;5016333;28;20042;-66
2022/09/18 04:17:38;;;;;;;16.77;2.55;;;12.60;99.90;;;;;;5016848;28;20033;-65
2022/09/18 04:20:04;;;;;;;21.50;2.50;;;12.50;99.90;;;;;;5016831;28;20037;-65
2022/09/18 04:22:30;;;;;;;17.00;2.20;;;12.10;99.90;;;;;;5016540;28;20128;-65
2022/09/18 04:24:56;;;;;;;22.27;3.72;;;12.30;99.90;;;;;;5016568;28;20124;-67
2022/09/18 04:27:21;;;;;;;10.63;2.13;;;12.20;99.90;;;;;;5015342;28;20077;-66
2022/09/18 04:29:47;;;;;;;22.25;2.95;;;12.90;99.90;;;;;;5016026;28;20049;-65
2022/09/18 04:32:12;;;;;;;17.42;2.10;;;13.00;99.90;;;;;;5016341;28;20056;-66
2022/09/18 04:34:38;;;;;;;11.45;1.80;;;13.10;99.90;;;;;;5016466;28;20038;-65
2022/09/18 04:37:03;;;;;;;13.68;1.70;;;13.30;99.90;;;;;;5016112;28;20041;-65
2022/09/18 04:39:31;;;;;;;9.55;2.08;;;12.80;99.90;;;;;;5033094;28;20510;-65
2022/09/18 04:41:58;;;;;;;9.52;1.50;;;13.40;99.90;;;;;;5015912;28;20139;-67
2022/09/18 04:44:24;;;;;;;7.38;1.75;;;13.60;99.90;;;;;;5016332;28;20049;-66
2022/09/18 04:46:49;;;;;;;8.00;1.83;;;13.70;99.90;;;;;;5015561;28;20051;-66
2022/09/18 04:49:15;;;;;;;5.97;1.55;;;13.80;99.90;;;;;;5016444;28;20118;-65
2022/09/18 04:51:40;;;;;;;10.35;1.90;;;13.50;99.90;;;;;;5015871;28;20072;-67
2022/09/18 04:54:06;;;;;;;10.32;1.90;;;14.00;99.90;;;;;;5016052;28;20042;-65
2022/09/18 04:56:31;;;;;;;6.85;1.58;;;13.90;99.90;;;;;;5013559;28;20069;-66
2022/09/18 04:58:58;;;;;;;10.43;1.70;;;13.90;99.90;;;;;;5014140;28;20050;-65
2022/09/18 05:01:24;;;;;;;7.50;1.48;;;13.90;99.90;;;;;;5011699;28;20042;-66
2022/09/18 05:03:50;;;;;;;10.80;1.70;;;13.30;99.90;;;;;;5034154;28;20045;-66
2022/09/18 05:06:19;;;;;;;13.98;2.50;;;13.60;99.90;;;;;;5015452;28;20049;-67
2022/09/18 05:08:44;;;;;;;19.65;2.35;;;13.00;99.90;;;;;;5015825;28;20039;-66
2022/09/18 05:11:10;;;;;;;14.55;2.15;;;13.70;99.90;;;;;;5014996;28;20095;-66
2022/09/18 05:13:35;;;;;;;16.75;2.25;;;13.60;99.90;;;;;;5015263;28;20406;-66
2022/09/18 05:16:01;;;;;;;14.77;1.88;;;13.20;99.90;;;;;;5033188;28;20079;-66
2022/09/18 05:18:26;;;;;;;10.52;1.88;;;13.60;99.90;;;;;;5015382;28;20034;-66
2022/09/18 05:20:53;;;;;;;12.88;1.63;;;13.40;99.90;;;;;;5015259;28;20041;-66
2022/09/18 05:23:19;;;;;;;12.75;1.67;;;13.40;99.90;;;;;;5015603;28;20053;-67
2022/09/18 05:25:44;;;;;;;7.10;1.52;;;13.30;99.90;;;;;;5015438;28;20042;-66
2022/09/18 05:28:12;;;;;;;12.27;1.70;;;13.40;99.90;;;;;;5015071;28;20037;-67
2022/09/18 05:30:37;;;;;;;5.63;1.50;;;13.40;99.90;;;;;;5014872;28;20539;-65
2022/09/18 05:33:08;;;;;;;4.70;1.10;;;13.90;99.90;;;;;;5032286;28;20069;-66
2022/09/18 05:35:34;;;;;;;13.18;1.70;;;14.10;99.90;;;;;;5032646;28;20491;-65
2022/09/18 05:38:00;;;;;;;3.42;1.10;;;14.10;99.90;;;;;;5015236;28;20053;-65
2022/09/18 05:40:31;;;;;;;7.00;1.30;;;13.90;99.90;;;;;;5032829;28;20037;-66
2022/09/18 05:42:57;;;;;;;5.68;1.23;;;13.90;99.90;;;;;;5032805;28;20069;-67
2022/09/18 05:45:23;;;;;;;7.32;1.50;;;13.60;99.90;;;;;;5014782;28;20113;-65
2022/09/18 05:48:00;;;;;;;7.38;1.40;;;14.10;99.90;;;;;;5032724;28;20091;-66
2022/09/18 05:50:27;;;;;;;13.05;1.60;;;14.20;99.90;;;;;;5014973;28;20521;-66
2022/09/18 05:53:11;;;;;;;7.03;1.58;;;13.60;99.90;;;;;;5015002;28;20038;-65
2022/09/18 05:55:37;;;;;;;7.18;1.33;;;14.20;99.90;;;;;;5015000;28;20045;-66
2022/09/18 05:58:04;;;;;;;7.25;1.15;;;13.80;99.90;;;;;;5014520;28;20033;-67
2022/09/18 06:00:32;;;;;;;15.73;2.10;;;14.20;99.90;;;;;;5013945;28;20045;-64
2022/09/18 06:03:00;;;;;;;4.40;1.05;;;13.80;99.90;;;;;;5032781;28;20045;-66
2022/09/18 06:05:29;;;;;;;10.98;2.22;;;13.80;99.90;;;;;;5014600;28;20049;-65
2022/09/18 06:07:57;;;;;;;8.43;1.20;;;13.30;99.90;;;;;;5014406;28;20052;-66
2022/09/18 06:10:23;;;;;;;13.43;1.75;;;13.60;99.90;;;;;;5030709;28;20045;-67
2022/09/18 06:12:48;;;;;;;11.13;1.50;;;13.50;99.90;;;;;;5014746;28;20037;-67
2022/09/18 06:15:14;;;;;;;15.65;2.25;;;13.30;99.90;;;;;;5032008;28;20036;-67
2022/09/18 06:17:40;;;;;;;9.50;1.83;;;13.20;99.90;;;;;;5014358;28;20037;-66
2022/09/18 06:20:07;;;;;;;9.63;1.58;;;12.80;99.90;;;;;;5014774;28;20046;-66
2022/09/18 06:22:34;;;;;;;12.05;1.70;;;12.70;99.90;;;;;;5014282;28;20101;-67
2022/09/18 06:25:00;;;;;;;14.88;1.45;;;12.50;99.90;;;;;;5014295;28;20124;-66
2022/09/18 06:27:26;;;;;;;4.45;0.93;;;12.40;99.90;;;;;;5013527;28;20563;-63
2022/09/18 06:29:52;;;;;;;6.45;1.50;;;12.40;99.90;;;;;;5013636;28;20764;-63
2022/09/18 06:32:19;;;;;;;5.75;1.30;;;12.70;99.90;;;;;;5029628;28;20120;-62
2022/09/18 06:34:45;;;;;;;6.93;1.50;;;12.40;99.90;;;;;;5031728;28;20063;-63
2022/09/18 06:37:12;;;;;;;12.13;1.92;;;13.00;99.90;;;;;;5030673;28;20495;-63
2022/09/18 06:39:38;;;;;;;6.68;1.50;;;12.40;99.90;;;;;;5029657;28;20045;-64
2022/09/18 06:42:04;;;;;;;19.40;2.10;;;13.00;99.90;;;;;;5012057;28;20060;-62
2022/09/18 06:44:29;;;;;;;18.05;2.25;;;13.00;99.90;;;;;;5031458;28;20052;-62
2022/09/18 06:46:55;;;;;;;15.95;2.50;;;12.40;99.90;;;;;;5031578;28;20034;-62
2022/09/18 06:49:21;;;;;;;30.08;3.92;;;12.70;99.90;;;;;;5031748;28;20037;-62
2022/09/18 06:51:47;;;;;;;21.20;2.70;;;12.50;99.90;;;;;;5031624;28;20071;-62
2022/09/18 06:54:13;;;;;;;9.35;1.88;;;13.00;99.90;;;;;;5031683;28;20104;-62
2022/09/18 06:56:40;;;;;;;14.00;1.73;;;13.30;99.90;;;;;;5031236;28;20037;-62
2022/09/18 06:59:05;;;;;;;21.58;2.63;;;12.90;99.90;;;;;;5029868;28;20041;-62
2022/09/18 07:01:31;;;;;;;25.63;2.85;;;12.80;99.90;;;;;;5029843;28;20041;-65
2022/09/18 07:03:56;;;;;;;17.25;2.90;;;13.10;99.90;;;;;;5030690;28;20410;-62
2022/09/18 07:06:22;;;;;;;24.20;3.40;;;12.30;99.90;;;;;;5028986;28;20037;-63
2022/09/18 07:08:48;;;;;;;17.95;2.33;;;12.90;99.90;;;;;;5030645;28;20039;-63
2022/09/18 07:11:13;;;;;;;18.20;2.60;;;12.30;99.90;;;;;;5030735;28;20064;-62
2022/09/18 07:13:39;;;;;;;18.88;2.20;;;12.30;99.90;;;;;;5030450;28;20052;-62
2022/09/18 07:16:05;;;;;;;12.13;2.92;;;12.90;99.90;;;;;;5030873;28;20069;-62
2022/09/18 07:18:30;;;;;;;19.00;2.38;;;13.00;99.90;;;;;;5030543;28;20038;-62
2022/09/18 07:20:59;;;;;;;20.95;2.97;;;12.80;99.90;;;;;;5031000;28;20034;-62
2022/09/18 07:23:28;;;;;;;28.65;2.38;;;13.20;99.90;;;;;;5029918;28;20046;-62
2022/09/18 07:25:53;;;;;;;19.50;2.90;;;13.30;99.90;;;;;;5013630;28;20045;-62
2022/09/18 07:28:19;;;;;;;13.35;2.00;;;12.70;99.90;;;;;;5031252;28;20037;-62
2022/09/18 07:30:45;;;;;;;23.70;3.55;;;13.40;99.90;;;;;;5030396;28;20121;-62
2022/09/18 07:33:10;;;;;;;16.77;2.25;;;12.90;99.90;;;;;;5031256;28;20124;-62
2022/09/18 07:35:36;;;;;;;22.63;2.50;;;13.30;99.90;;;;;;5030951;28;20440;-61
2022/09/18 07:38:05;;;;;;;26.98;1.98;;;13.10;99.90;;;;;;5030852;28;20068;-62
2022/09/18 07:40:31;;;;;;;9.88;1.75;;;13.30;99.90;;;;;;5031170;28;20136;-62
2022/09/18 07:43:03;;;;;;;17.65;3.35;;;13.90;99.90;;;;;;5031146;28;20045;-62
2022/09/18 07:45:28;;;;;;;12.98;2.53;;;13.40;99.90;;;;;;5030776;28;20029;-62
2022/09/18 07:47:54;;;;;;;8.18;1.52;;;13.70;99.90;;;;;;5031015;28;20125;-62
2022/09/18 07:50:21;;;;;;;9.40;1.80;;;14.10;99.90;;;;;;5030900;28;20033;-62
2022/09/18 07:52:52;;;;;;;8.18;2.15;;;14.00;99.90;;;;;;5029460;28;20084;-62
2022/09/18 07:55:19;;;;;;;7.40;1.50;;;14.10;99.90;;;;;;5030621;28;20454;-62
2022/09/18 07:57:46;;;;;;;9.57;1.58;;;13.70;99.90;;;;;;4996999;28;20094;-62
2022/09/18 08:00:13;;;;;;;8.63;1.60;;;13.40;99.90;;;;;;5030561;28;20045;-62
2022/09/18 08:02:39;;;;;;;3.53;1.10;;;13.30;99.90;;;;;;5030502;28;20045;-62
2022/09/18 08:05:05;;;;;;;9.48;1.60;;;14.00;99.90;;;;;;5031030;28;20052;-62
2022/09/18 08:07:31;;;;;;;6.95;1.30;;;13.80;99.90;;;;;;5030445;28;20509;-62
2022/09/18 08:09:56;;;;;;;12.27;1.63;;;13.80;99.90;;;;;;5030845;28;20045;-62
2022/09/18 08:12:22;;;;;;;10.05;1.95;;;13.50;99.90;;;;;;5031054;28;20050;-62
2022/09/18 08:14:48;;;;;;;10.55;1.38;;;13.10;99.90;;;;;;5050604;28;20099;-62
2022/09/18 08:17:13;;;;;;;10.88;1.48;;;13.60;99.90;;;;;;5011113;28;20041;-63
2022/09/18 08:19:39;;;;;;;14.23;1.98;;;13.30;99.90;;;;;;5029768;28;20040;-62
2022/09/18 08:22:04;;;;;;;13.15;1.90;;;13.50;99.90;;;;;;5030746;28;20091;-62
2022/09/18 08:24:30;;;;;;;13.00;1.80;;;14.10;99.90;;;;;;5030752;28;20525;-62
2022/09/18 08:27:02;;;;;;;11.18;1.70;;;13.90;99.90;;;;;;5030051;28;20056;-62
2022/09/18 08:29:28;;;;;;;13.73;2.22;;;13.60;99.90;;;;;;5031012;28;20116;-62
2022/09/18 08:31:54;;;;;;;19.73;2.70;;;13.60;99.90;;;;;;5033642;28;20085;-62
2022/09/18 08:34:19;;;;;;;7.07;1.33;;;13.40;99.90;;;;;;5034275;28;20064;-62
2022/09/18 08:36:45;;;;;;;3.20;0.98;;;13.40;99.90;;;;;;5034023;28;20478;-62
2022/09/18 08:39:10;;;;;;;8.25;1.30;;;13.40;99.90;;;;;;5034456;28;20069;-62
2022/09/18 08:41:58;;;;;;;4.80;0.98;;;13.40;99.90;;;;;;5034002;28;20491;-62
2022/09/18 08:44:28;;;;;;;6.88;0.95;;;13.20;99.90;;;;;;5034293;28;20041;-63
2022/09/18 08:46:59;;;;;;;7.82;1.15;;;13.30;99.90;;;;;;5033155;28;20046;-62
2022/09/18 08:49:28;;;;;;;4.10;1.20;;;13.30;99.90;;;;;;5033731;28;20038;-62
2022/09/18 08:52:09;;;;;;;8.07;0.95;;;13.60;99.90;;;;;;5034134;28;20274;-62
2022/09/18 08:54:56;;;;;;;7.70;1.52;;;14.20;99.90;;;;;;5033843;28;20080;-63
2022/09/18 08:57:32;;;;;;;6.93;1.85;;;13.70;99.90;;;;;;5026525;28;20116;-62
2022/09/18 09:00:14;;;;;;;14.57;2.15;;;14.50;99.90;;;;;;5030943;28;20486;-63
2022/09/18 09:02:44;;;;;;;10.93;1.92;;;13.90;99.90;;;;;;5033572;28;20469;-62
2022/09/18 09:05:17;;;;;;;6.97;1.63;;;14.60;99.90;;;;;;5033898;28;20065;-62
2022/09/18 09:07:53;;;;;;;10.88;1.73;;;14.20;99.90;;;;;;5033712;28;20052;-62
2022/09/18 09:10:42;;;;;;;5.30;1.42;;;13.90;99.90;;;;;;5016864;28;20111;-62
2022/09/18 09:13:48;;;;;;;12.65;1.80;;;13.60;99.90;;;;;;5033650;28;20048;-62
2022/09/18 09:16:22;;;;;;;14.27;1.98;;;13.90;99.90;;;;;;5033127;28;20061;-62
2022/09/18 09:18:59;;;;;;;8.55;1.48;;;13.60;99.90;;;;;;5033265;28;20495;-62
2022/09/18 09:21:49;;;;;;;12.73;1.75;;;13.60;99.90;;;;;;5034127;28;20091;-62
2022/09/18 09:24:32;;;;;;;11.25;1.90;;;13.60;99.90;;;;;;5013645;28;20053;-62
2022/09/18 09:27:03;;;;;;;15.25;2.08;;;13.60;99.90;;;;;;5027080;28;20046;-62
2022/09/18 09:29:39;;;;;;;11.20;1.77;;;13.50;99.90;;;;;;5033608;28;20511;-62
2022/09/18 09:32:27;;;;;;;7.43;2.00;;;13.10;99.90;;;;;;5032657;28;20045;-62
2022/09/18 09:35:19;;;;;;;12.77;1.83;;;13.20;99.90;;;;;;5015782;28;20479;-62
2022/09/18 09:37:47;;;;;;;8.82;1.63;;;13.30;99.90;;;;;;5032754;28;20455;-62
2022/09/18 09:40:37;;;;;;;10.57;1.70;;;13.70;99.90;;;;;;5033198;28;20095;-62
2022/09/18 09:43:13;;;;;;;7.97;1.75;;;13.30;99.90;;;;;;5032470;28;20056;-62
2022/09/18 09:45:46;;;;;;;;;;;13.40;99.90;;;;;;5032708;28;20040;-62
2022/09/18 09:48:22;;;;;;;11.43;2.08;;;13.40;99.90;;;;;;5014544;28;19925;-62
2022/09/18 09:51:03;;;;;;;;;;;13.50;99.90;;;;;;5033241;28;20041;-62
2022/09/18 09:53:29;;;;;;;10.57;2.28;;;14.20;99.90;;;;;;5032992;28;19932;-62
2022/09/18 09:56:07;;;;;;;24.73;2.40;;;13.90;99.90;;;;;;5032124;28;20033;-62
2022/09/18 09:58:52;;;;;;;14.63;2.50;;;13.50;99.90;;;;;;5016098;28;20049;-62
2022/09/18 10:01:30;;;;;;;13.77;3.47;;;13.90;99.90;;;;;;5030002;28;20056;-62
2022/09/18 10:04:17;;;;;;;10.15;1.88;;;13.90;99.90;;;;;;5014958;28;20167;-62
2022/09/18 10:07:02;;;;;;;11.43;1.80;;;13.90;99.90;;;;;;5032807;28;20495;-62
2022/09/18 10:09:49;;;;;;;15.07;2.60;;;13.90;99.90;;;;;;5032741;28;20571;-62
2022/09/18 10:12:26;;;;;;;;;;;13.60;99.90;;;;;;5032532;28;20093;-62
2022/09/18 10:14:55;;;;;;;17.58;2.60;;;14.40;99.90;;;;;;5032007;28;19998;-62
2022/09/18 10:17:22;;;;;;;10.10;2.00;;;14.30;99.90;;;;;;5032356;28;20074;-62
2022/09/18 10:19:48;;;;;;;10.40;1.95;;;14.00;99.90;;;;;;5032219;28;20041;-62
2022/09/18 10:22:17;;;;;;;12.27;1.98;;;14.40;99.90;;;;;;5031985;28;20037;-61
2022/09/18 10:24:47;;;;;;;11.02;1.98;;;14.80;99.90;;;;;;5040773;28;20037;-62
2022/09/18 10:27:14;;;;;;;12.43;1.80;;;14.50;99.90;;;;;;5032196;28;20087;-62
2022/09/18 10:29:41;;;;;;;9.15;1.80;;;15.00;99.90;;;;;;5032045;28;20045;-62
2022/09/18 10:32:10;;;;;;;7.75;1.77;;;15.20;99.90;;;;;;5031652;28;20041;-62
2022/09/18 10:34:35;;;;;;;18.95;2.00;;;15.20;99.90;;;;;;5031944;28;20033;-62
2022/09/18 10:37:02;;;;;;;9.05;1.80;;;15.20;99.90;;;;;;5031646;28;20392;-62
2022/09/18 10:39:30;;;;;;;7.70;1.20;;;14.80;99.90;;;;;;5031957;28;20045;-62
2022/09/18 10:42:00;;;;;;;10.00;2.85;;;15.20;99.90;;;;;;5031475;28;20049;-62
2022/09/18 10:44:29;;;;;;;10.00;1.60;;;14.90;99.90;;;;;;5032141;28;20545;-62
2022/09/18 10:47:06;;;;;;;8.65;1.55;;;15.00;99.90;;;;;;5031697;28;20053;-62
2022/09/18 10:49:35;;;;;;;12.73;1.70;;;15.20;99.90;;;;;;5031781;28;20045;-62
2022/09/18 10:52:27;;;;;;;9.25;1.75;;;15.30;99.90;;;;;;5031157;28;20402;-62
2022/09/18 10:55:05;;;;;;;11.02;2.15;;;15.00;99.90;;;;;;5030783;28;20411;-62
2022/09/18 10:57:33;;;;;;;12.50;2.05;;;15.40;99.90;;;;;;5023234;28;20038;-62
2022/09/18 11:00:00;;;;;;;9.10;1.85;;;15.10;99.90;;;;;;5011765;28;20034;-62
2022/09/18 11:02:32;;;;;;;8.43;1.52;;;15.30;99.90;;;;;;5028573;28;20050;-61
2022/09/18 11:04:57;;;;;;;7.00;1.80;;;15.50;99.90;;;;;;5031430;28;20072;-62
2022/09/18 11:07:24;;;;;;;14.65;2.10;;;15.50;99.90;;;;;;5031105;28;20033;-62
2022/09/18 11:09:50;;;;;;;10.65;1.75;;;15.20;99.90;;;;;;5013698;28;20037;-62
2022/09/18 11:12:19;;;;;;;16.85;2.40;;;15.30;99.90;;;;;;5030966;28;20049;-62
2022/09/18 11:14:49;;;;;;;13.93;2.33;;;15.40;99.90;;;;;;5031411;28;20037;-62
2022/09/18 11:17:33;;;;;;;6.93;1.63;;;15.30;99.90;;;;;;5031319;28;20039;-62
2022/09/18 11:20:01;;;;;;;8.10;1.63;;;15.70;99.90;;;;;;5031118;28;20045;-62
2022/09/18 11:22:36;;;;;;;9.23;1.73;;;15.60;99.90;;;;;;5031068;28;20065;-62
2022/09/18 11:25:13;;;;;;;8.63;1.73;;;15.80;99.90;;;;;;5030836;28;20052;-62
2022/09/18 11:27:51;;;;;;;7.93;1.73;;;15.70;99.90;;;;;;5030902;28;20052;-62
2022/09/18 11:30:28;;;;;;;5.97;1.55;;;15.70;99.90;;;;;;5030941;28;20046;-62
2022/09/18 11:33:13;;;;;;;8.02;1.35;;;15.50;99.90;;;;;;5030620;28;20124;-62
2022/09/18 11:35:44;;;;;;;15.98;2.25;;;15.40;99.90;;;;;;5013560;28;20044;-62
2022/09/18 11:38:18;;;;;;;16.90;3.28;;;15.50;99.90;;;;;;5031245;28;20487;-62
2022/09/18 11:40:48;;;;;;;19.92;2.80;;;15.20;99.90;;;;;;5030483;28;20414;-62
2022/09/18 11:43:24;;;;;;;15.38;2.85;;;14.60;99.90;;;;;;5013713;28;20051;-62
2022/09/18 11:46:21;;;;;;;16.38;2.53;;;14.40;99.90;;;;;;5030905;28;20585;-62
2022/09/18 11:48:52;;;;;;;9.88;1.88;;;14.80;99.90;;;;;;5031108;28;20495;-62
2022/09/18 11:51:47;;;;;;;11.18;2.13;;;14.50;99.90;;;;;;5030881;28;20094;-62
2022/09/18 11:54:50;;;;;;;16.83;2.80;;;14.70;99.90;;;;;;5013453;28;20426;-62
2022/09/18 11:57:25;;;;;;;12.35;2.70;;;14.40;99.90;;;;;;5024010;28;20484;-62
2022/09/18 12:00:08;;;;;;;13.98;2.10;;;14.70;99.90;;;;;;5030797;28;20067;-62
2022/09/18 12:02:49;;;;;;;10.35;1.75;;;14.90;99.90;;;;;;5031082;28;20044;-62
2022/09/18 12:05:23;;;;;;;8.65;1.80;;;14.70;99.90;;;;;;5032349;28;20064;-62
2022/09/18 12:08:05;;;;;;;8.48;1.40;;;14.80;99.90;;;;;;5034709;28;20523;-62
2022/09/18 12:10:52;;;;;;;5.47;1.48;;;14.90;99.90;;;;;;5034390;28;20148;-62
2022/09/18 12:13:21;;;;;;;9.55;2.22;;;15.60;99.90;;;;;;5034562;28;20084;-62
2022/09/18 12:15:57;;;;;;;11.88;1.88;;;15.00;99.90;;;;;;5034704;28;20518;-62
2022/09/18 12:18:28;;;;;;;13.02;3.08;;;15.30;99.90;;;;;;5034592;28;20491;-62
2022/09/18 12:21:10;;;;;;;11.77;1.95;;;15.10;99.90;;;;;;5034722;28;20044;-62
2022/09/18 12:23:37;;;;;;;10.52;1.90;;;15.30;99.90;;;;;;5034661;28;20120;-62
2022/09/18 12:26:26;;;;;;;13.63;1.80;;;14.80;99.90;;;;;;5034295;28;20048;-62
2022/09/18 12:29:13;;;;;;;13.32;2.05;;;14.80;99.90;;;;;;5034276;28;20049;-62
2022/09/18 12:31:53;;;;;;;10.40;1.85;;;14.60;99.90;;;;;;5033868;28;20075;-62
2022/09/18 12:34:48;;;;;;;16.52;2.38;;;14.10;99.90;;;;;;5034055;28;20041;-62
2022/09/18 12:37:45;;;;;;;9.55;2.20;;;13.90;99.90;;;;;;5051698;28;20120;-62
2022/09/18 12:40:22;;;;;;;7.78;1.90;;;13.90;99.90;;;;;;5054038;28;20041;-62
2022/09/18 12:43:12;;;;;;;6.43;1.35;;;14.10;99.90;;;;;;5022690;28;20054;-62
2022/09/18 12:46:09;;;;;;;8.10;1.60;;;14.00;99.90;;;;;;5033800;28;20510;-62
2022/09/18 12:48:40;;;;;;;;;;;14.50;99.90;;;;;;5034990;28;20052;-62
2022/09/18 12:51:20;;;;;;;8.90;1.60;;;14.60;99.90;;;;;;5034034;28;19963;-62
2022/09/18 12:53:56;;;;;;;11.93;1.52;;;14.40;99.90;;;;;;5034122;28;20041;-62
2022/09/18 12:56:56;;;;;;;7.53;1.30;;;14.20;99.90;;;;;;5033542;28;20046;-62
2022/09/18 12:59:31;;;;;;;8.30;2.92;;;14.70;99.90;;;;;;4988542;28;20049;-62
2022/09/18 13:02:09;;;;;;;15.15;2.00;;;14.70;99.90;;;;;;5031521;28;20060;-62
2022/09/18 13:04:44;;;;;;;8.57;1.55;;;14.40;99.90;;;;;;5033815;28;20171;-62